createdAt,value
2019-03-17T00:53:50.288Z,0.00
2019-03-17T00:54:50.196Z,0.00
2019-03-17T00:56:43.197Z,0.00
2019-03-17T00:57:43.135Z,0.00
2019-03-17T00:59:36.097Z,0.00
2019-03-17T01:00:36.026Z,0.00
2019-03-17T01:02:28.984Z,0.00
2019-03-17T01:03:28.927Z,0.00
2019-03-17T01:05:21.906Z,0.00
2019-03-17T01:06:21.832Z,0.00
2019-03-17T01:08:14.799Z,0.00
2019-03-17T01:09:14.743Z,0.00
2019-03-17T01:11:07.695Z,0.00
2019-03-17T01:12:07.622Z,0.00
2019-03-17T01:14:00.593Z,0.00
2019-03-17T01:15:00.540Z,0.00
2019-03-17T01:16:53.506Z,0.00
2019-03-17T01:17:53.435Z,0.00
2019-03-17T01:19:46.407Z,0.00
2019-03-17T01:20:46.347Z,0.00
2019-03-17T01:22:39.657Z,0.00
2019-03-17T01:23:39.588Z,0.00
2019-03-17T01:24:39.686Z,0.00
2019-03-17T01:25:39.482Z,0.00
2019-03-17T01:26:39.433Z,0.00
2019-03-17T01:27:39.399Z,0.00
2019-03-17T01:28:39.333Z,0.00
2019-03-17T01:29:39.486Z,0.00
2019-03-17T01:30:39.232Z,0.00
2019-03-17T01:31:39.188Z,0.00
2019-03-17T01:32:39.148Z,0.00
2019-03-17T01:33:39.083Z,0.00
2019-03-17T01:34:39.191Z,0.00
2019-03-17T01:35:38.977Z,0.00
2019-03-17T01:36:38.927Z,0.00
2019-03-17T01:37:38.894Z,0.00
2019-03-17T01:38:38.828Z,0.00
2019-03-17T01:39:38.986Z,0.00
2019-03-17T01:40:38.724Z,0.00
2019-03-17T01:41:38.680Z,0.00
2019-03-17T01:42:38.632Z,0.00
2019-03-17T01:43:38.575Z,0.00
2019-03-17T01:44:38.703Z,0.00
2019-03-17T01:45:38.469Z,0.00
2019-03-17T01:46:38.420Z,0.00
2019-03-17T01:47:38.388Z,0.00
2019-03-17T01:48:38.322Z,0.00
2019-03-17T01:49:38.502Z,0.00
2019-03-17T01:50:38.219Z,0.00
2019-03-17T01:51:38.167Z,0.00
2019-03-17T01:52:38.117Z,0.00
2019-03-17T01:53:38.067Z,0.00
2019-03-17T01:54:38.210Z,0.00
2019-03-17T01:55:37.968Z,0.00
2019-03-17T01:56:37.916Z,0.00
2019-03-17T01:57:37.881Z,0.00
2019-03-17T01:58:37.813Z,0.00
2019-03-17T01:59:37.906Z,0.00
2019-03-17T02:00:37.723Z,0.00
2019-03-17T02:01:37.661Z,0.00
2019-03-17T02:02:37.632Z,0.00
2019-03-17T02:03:37.558Z,0.00
2019-03-17T02:04:37.702Z,0.00
2019-03-17T02:05:37.457Z,0.00
2019-03-17T02:06:37.409Z,0.00
2019-03-17T02:07:37.378Z,0.00
2019-03-17T02:08:37.303Z,0.00
2019-03-17T02:09:37.413Z,0.00
2019-03-17T02:10:37.201Z,0.00
2019-03-17T02:11:37.150Z,0.00
2019-03-17T02:12:37.112Z,0.00
2019-03-17T02:13:37.049Z,0.00
2019-03-17T02:14:37.200Z,0.00
2019-03-17T02:15:36.948Z,0.00
2019-03-17T02:16:36.902Z,0.00
2019-03-17T02:17:36.865Z,0.00
2019-03-17T02:18:36.803Z,0.00
2019-03-17T02:19:36.916Z,0.00
2019-03-17T02:20:36.694Z,0.00
2019-03-17T02:21:36.650Z,0.00
2019-03-17T02:22:36.595Z,0.00
2019-03-17T02:23:36.541Z,0.00
2019-03-17T02:24:36.719Z,0.00
2019-03-17T02:25:36.444Z,0.00
2019-03-17T02:26:36.390Z,0.00
2019-03-17T02:27:36.355Z,0.00
2019-03-17T02:28:36.294Z,0.00
2019-03-17T02:29:36.418Z,0.00
2019-03-17T02:30:36.191Z,0.00
2019-03-17T02:31:36.157Z,0.00
2019-03-17T02:32:36.100Z,0.00
2019-03-17T02:33:36.037Z,0.00
2019-03-17T02:34:36.219Z,0.00
2019-03-17T02:35:39.418Z,0.00
2019-03-17T02:36:35.881Z,0.00
2019-03-17T02:37:35.847Z,0.00
2019-03-17T02:38:35.784Z,0.00
2019-03-17T02:39:36.033Z,0.00
2019-03-17T02:40:35.680Z,0.00
2019-03-17T02:41:35.686Z,0.00
2019-03-17T02:42:35.644Z,0.00
2019-03-17T02:43:35.524Z,0.00
2019-03-17T02:44:35.623Z,0.00
2019-03-17T02:45:35.431Z,0.00
2019-03-17T02:46:35.370Z,0.00
2019-03-17T02:47:35.336Z,0.00
2019-03-17T02:48:35.270Z,0.00
2019-03-17T02:49:35.423Z,0.00
2019-03-17T02:50:35.167Z,0.00
2019-03-17T02:51:35.123Z,0.00
2019-03-17T02:52:35.071Z,0.00
2019-03-17T02:53:35.022Z,0.00
2019-03-17T02:54:35.140Z,0.00
2019-03-17T02:55:34.913Z,0.00
2019-03-17T02:56:34.874Z,0.00
2019-03-17T02:57:34.832Z,0.00
2019-03-17T02:58:34.760Z,0.00
2019-03-17T02:59:34.947Z,0.00
2019-03-17T03:00:34.662Z,0.00
2019-03-17T03:01:34.611Z,0.00
2019-03-17T03:02:34.574Z,0.00
2019-03-17T03:03:34.510Z,0.00
2019-03-17T03:04:34.635Z,0.00
2019-03-17T03:05:34.403Z,0.00
2019-03-17T03:06:34.364Z,0.00
2019-03-17T03:07:34.313Z,0.00
2019-03-17T03:08:34.253Z,0.00
2019-03-17T03:09:34.444Z,0.00
2019-03-17T03:10:34.150Z,0.00
2019-03-17T03:11:34.096Z,0.00
2019-03-17T03:12:34.046Z,0.00
2019-03-17T03:13:34.003Z,0.00
2019-03-17T03:14:33.964Z,0.00
2019-03-17T03:15:33.891Z,0.00
2019-03-17T03:16:34.041Z,0.00
2019-03-17T03:17:33.794Z,0.00
2019-03-17T03:18:33.737Z,0.00
2019-03-17T03:19:33.703Z,0.00
2019-03-17T03:20:33.634Z,0.00
2019-03-17T03:21:33.748Z,0.00
2019-03-17T03:22:33.533Z,0.00
2019-03-17T03:23:33.482Z,0.00
2019-03-17T03:24:33.447Z,0.00
2019-03-17T03:25:33.379Z,0.00
2019-03-17T03:26:33.537Z,0.00
2019-03-17T03:27:33.391Z,0.00
2019-03-17T03:28:33.231Z,0.00
2019-03-17T03:29:33.191Z,0.00
2019-03-17T03:30:33.128Z,0.00
2019-03-17T03:31:33.359Z,0.00
2019-03-17T03:32:33.035Z,0.00
2019-03-17T03:33:32.986Z,0.00
2019-03-17T03:34:32.990Z,0.00
2019-03-17T03:35:32.866Z,0.00
2019-03-17T03:36:33.052Z,0.00
2019-03-17T03:37:32.763Z,0.00
2019-03-17T03:38:32.713Z,0.00
2019-03-17T03:39:32.681Z,0.00
2019-03-17T03:40:32.611Z,0.00
2019-03-17T03:41:32.759Z,0.00
2019-03-17T03:42:32.508Z,0.00
2019-03-17T03:43:32.482Z,0.00
2019-03-17T03:44:32.429Z,0.00
2019-03-17T03:45:32.354Z,0.00
2019-03-17T03:46:32.458Z,0.00
2019-03-17T03:47:32.253Z,0.00
2019-03-17T03:48:32.209Z,0.00
2019-03-17T03:49:32.165Z,0.00
2019-03-17T03:50:32.130Z,0.00
2019-03-17T03:51:32.262Z,0.00
2019-03-17T03:52:31.998Z,0.00
2019-03-17T03:53:31.947Z,0.00
2019-03-17T03:54:31.915Z,0.00
2019-03-17T03:55:31.844Z,0.00
2019-03-17T03:56:31.950Z,0.00
2019-03-17T03:57:31.741Z,0.00
2019-03-17T03:58:31.691Z,0.00
2019-03-17T03:59:31.660Z,0.00
2019-03-17T04:00:31.598Z,0.00
2019-03-17T04:01:31.770Z,0.00
2019-03-17T04:02:31.486Z,0.00
2019-03-17T04:03:31.442Z,0.00
2019-03-17T04:04:31.405Z,0.00
2019-03-17T04:05:32.837Z,0.00
2019-03-17T04:06:31.467Z,0.00
2019-03-17T04:07:31.228Z,0.00
2019-03-17T04:08:31.179Z,0.00
2019-03-17T04:09:31.147Z,0.00
2019-03-17T04:10:31.079Z,0.00
2019-03-17T04:11:31.265Z,0.00
2019-03-17T04:12:30.978Z,0.00
2019-03-17T04:13:30.923Z,0.00
2019-03-17T04:14:30.895Z,0.00
2019-03-17T04:15:30.824Z,0.00
2019-03-17T04:16:30.983Z,0.00
2019-03-17T04:17:30.728Z,0.00
2019-03-17T04:18:30.670Z,0.00
2019-03-17T04:19:30.636Z,0.00
2019-03-17T04:20:30.567Z,0.00
2019-03-17T04:21:30.699Z,0.00
2019-03-17T04:22:30.464Z,0.00
2019-03-17T04:23:30.419Z,0.00
2019-03-17T04:24:30.379Z,0.00
2019-03-17T04:25:30.311Z,0.00
2019-03-17T04:26:30.465Z,0.00
2019-03-17T04:27:30.214Z,0.00
2019-03-17T04:28:30.159Z,0.00
2019-03-17T04:29:30.130Z,0.00
2019-03-17T04:30:30.059Z,0.00
2019-03-17T04:31:30.164Z,0.00
2019-03-17T04:32:29.962Z,0.00
2019-03-17T04:33:29.904Z,0.00
2019-03-17T04:34:29.872Z,0.00
2019-03-17T04:35:29.806Z,0.00
2019-03-17T04:36:40.069Z,0.00
2019-03-17T04:37:29.699Z,0.00
2019-03-17T04:38:29.652Z,0.00
2019-03-17T04:39:29.614Z,0.00
2019-03-17T04:40:29.562Z,0.00
2019-03-17T04:41:29.678Z,0.00
2019-03-17T04:42:29.441Z,0.00
2019-03-17T04:43:29.390Z,0.00
2019-03-17T04:44:29.356Z,0.00
2019-03-17T04:45:29.295Z,0.00
2019-03-17T04:46:29.387Z,0.00
2019-03-17T04:47:29.185Z,0.00
2019-03-17T04:48:29.139Z,0.00
2019-03-17T04:49:29.105Z,0.00
2019-03-17T04:50:29.031Z,0.00
2019-03-17T04:51:29.179Z,0.00
2019-03-17T04:52:28.941Z,0.00
2019-03-17T04:53:28.878Z,0.00
2019-03-17T04:54:28.847Z,0.00
2019-03-17T04:55:28.776Z,0.00
2019-03-17T04:56:28.882Z,0.00
2019-03-17T04:57:28.678Z,0.00
2019-03-17T04:58:28.619Z,4.00
2019-03-17T04:59:28.586Z,0.00
2019-03-17T05:00:28.522Z,4.00
2019-03-17T05:01:28.692Z,0.00
2019-03-17T05:02:28.421Z,4.00
2019-03-17T05:03:28.366Z,4.00
2019-03-17T05:04:28.335Z,8.00
2019-03-17T05:05:28.261Z,8.00
2019-03-17T05:06:28.388Z,8.00
2019-03-17T05:07:28.163Z,12.00
2019-03-17T05:08:28.115Z,12.00
2019-03-17T05:09:28.083Z,16.00
2019-03-17T05:10:28.005Z,20.00
2019-03-17T05:11:28.184Z,24.00
2019-03-17T05:12:27.902Z,28.00
2019-03-17T05:13:27.853Z,32.00
2019-03-17T05:14:27.818Z,44.00
2019-03-17T05:15:27.749Z,48.00
2019-03-17T05:16:27.898Z,56.00
2019-03-17T05:17:27.647Z,60.00
2019-03-17T05:18:27.597Z,68.00
2019-03-17T05:19:27.566Z,76.00
2019-03-17T05:20:27.492Z,84.00
2019-03-17T05:21:27.598Z,100.00
2019-03-17T05:22:27.395Z,108.00
2019-03-17T05:23:27.338Z,124.00
2019-03-17T05:24:27.305Z,140.00
2019-03-17T05:25:27.234Z,160.00
2019-03-17T05:26:27.349Z,180.00
2019-03-17T05:27:27.137Z,200.00
2019-03-17T05:28:27.083Z,228.00
2019-03-17T05:29:27.127Z,252.00
2019-03-17T05:30:26.988Z,280.00
2019-03-17T05:31:27.101Z,316.00
2019-03-17T05:32:26.877Z,360.00
2019-03-17T05:33:26.828Z,400.00
2019-03-17T05:34:26.798Z,440.00
2019-03-17T05:35:26.726Z,484.00
2019-03-17T05:36:26.910Z,524.00
2019-03-17T05:37:26.626Z,560.00
2019-03-17T05:38:26.569Z,592.00
2019-03-17T05:39:26.542Z,628.00
2019-03-17T05:40:26.467Z,664.00
2019-03-17T05:41:26.616Z,688.00
2019-03-17T05:42:26.366Z,716.00
2019-03-17T05:43:26.315Z,744.00
2019-03-17T05:44:26.280Z,768.00
2019-03-17T05:45:26.210Z,800.00
2019-03-17T05:46:26.412Z,848.00
2019-03-17T05:47:26.111Z,908.00
2019-03-17T05:48:26.066Z,964.00
2019-03-17T05:49:26.024Z,1040.00
2019-03-17T05:50:25.962Z,1108.00
2019-03-17T05:51:26.099Z,1184.00
2019-03-17T05:52:25.854Z,1268.00
2019-03-17T05:53:25.806Z,1328.00
2019-03-17T05:54:25.771Z,1392.00
2019-03-17T05:55:25.701Z,1480.00
2019-03-17T05:56:25.812Z,1540.00
2019-03-17T05:57:25.597Z,1572.00
2019-03-17T05:58:25.548Z,1600.00
2019-03-17T05:59:25.522Z,1620.00
2019-03-17T06:00:25.451Z,1632.00
2019-03-17T06:01:25.618Z,1704.00
2019-03-17T06:02:25.345Z,1780.00
2019-03-17T06:03:25.295Z,1844.00
2019-03-17T06:04:25.268Z,1880.00
2019-03-17T06:05:25.197Z,1888.00
2019-03-17T06:06:25.308Z,1992.00
2019-03-17T06:07:25.095Z,2064.00
2019-03-17T06:08:25.039Z,2116.00
2019-03-17T06:09:25.005Z,2076.00
2019-03-17T06:10:24.943Z,2136.00
2019-03-17T06:11:25.134Z,2112.00
2019-03-17T06:12:24.837Z,1988.00
2019-03-17T06:13:24.792Z,2068.00
2019-03-17T06:14:24.754Z,2156.00
2019-03-17T06:15:24.685Z,2204.00
2019-03-17T06:16:24.824Z,2224.00
2019-03-17T06:17:24.587Z,2320.00
2019-03-17T06:18:24.532Z,2380.00
2019-03-17T06:19:24.501Z,2456.00
2019-03-17T06:20:24.433Z,2648.00
2019-03-17T06:21:24.622Z,2680.00
2019-03-17T06:22:24.337Z,2884.00
2019-03-17T06:23:24.287Z,3108.00
2019-03-17T06:24:24.253Z,3244.00
2019-03-17T06:25:24.185Z,3288.00
2019-03-17T06:26:24.322Z,3432.00
2019-03-17T06:27:24.084Z,2976.00
2019-03-17T06:28:24.030Z,3648.00
2019-03-17T06:29:23.996Z,3504.00
2019-03-17T06:30:23.935Z,3188.00
2019-03-17T06:31:24.036Z,3060.00
2019-03-17T06:32:23.829Z,3048.00
2019-03-17T06:33:23.788Z,3192.00
2019-03-17T06:34:24.444Z,3096.00
2019-03-17T06:35:23.697Z,3216.00
2019-03-17T06:36:23.835Z,3732.00
2019-03-17T06:37:30.979Z,3752.00
2019-03-17T06:38:23.531Z,3828.00
2019-03-17T06:39:23.499Z,4148.00
2019-03-17T06:40:23.429Z,4100.00
2019-03-17T06:41:23.528Z,4160.00
2019-03-17T06:42:23.329Z,3904.00
2019-03-17T06:43:23.279Z,3792.00
2019-03-17T06:44:23.250Z,3904.00
2019-03-17T06:45:23.184Z,3852.00
2019-03-17T06:46:23.347Z,3764.00
2019-03-17T06:47:23.081Z,3736.00
2019-03-17T06:48:23.032Z,3720.00
2019-03-17T06:49:23.042Z,3720.00
2019-03-17T06:50:22.933Z,3664.00
2019-03-17T06:51:23.041Z,3600.00
2019-03-17T06:52:22.840Z,3604.00
2019-03-17T06:53:22.784Z,3620.00
2019-03-17T06:54:22.754Z,3656.00
2019-03-17T06:55:22.687Z,3728.00
2019-03-17T06:56:22.842Z,3816.00
2019-03-17T06:57:22.585Z,3836.00
2019-03-17T06:58:22.538Z,3876.00
2019-03-17T06:59:22.511Z,3912.00
2019-03-17T07:00:22.445Z,4052.00
2019-03-17T07:01:22.552Z,4116.00
2019-03-17T07:02:22.339Z,4168.00
2019-03-17T07:03:22.296Z,4200.00
2019-03-17T07:04:22.265Z,4296.00
2019-03-17T07:05:22.192Z,4332.00
2019-03-17T07:06:22.347Z,4508.00
2019-03-17T07:07:22.095Z,4412.00
2019-03-17T07:08:22.046Z,4448.00
2019-03-17T07:09:22.016Z,4652.00
2019-03-17T07:10:21.953Z,4668.00
2019-03-17T07:11:22.038Z,4880.00
2019-03-17T07:12:21.848Z,4764.00
2019-03-17T07:13:21.800Z,4856.00
2019-03-17T07:14:21.770Z,4940.00
2019-03-17T07:15:21.702Z,4852.00
2019-03-17T07:16:21.848Z,4816.00
2019-03-17T07:17:21.610Z,4940.00
2019-03-17T07:18:21.556Z,5496.00
2019-03-17T07:19:21.528Z,5488.00
2019-03-17T07:20:21.463Z,5392.00
2019-03-17T07:21:21.644Z,6296.00
2019-03-17T07:22:21.361Z,6660.00
2019-03-17T07:23:21.312Z,6568.00
2019-03-17T07:24:21.282Z,6052.00
2019-03-17T07:25:21.218Z,6796.00
2019-03-17T07:26:21.361Z,5916.00
2019-03-17T07:27:21.119Z,6560.00
2019-03-17T07:28:21.071Z,6924.00
2019-03-17T07:29:21.042Z,6956.00
2019-03-17T07:30:20.971Z,7856.00
2019-03-17T07:31:21.154Z,7608.00
2019-03-17T07:32:20.877Z,7160.00
2019-03-17T07:33:20.828Z,6948.00
2019-03-17T07:34:20.802Z,6352.00
2019-03-17T07:35:20.731Z,5928.00
2019-03-17T07:36:20.859Z,5740.00
2019-03-17T07:37:20.640Z,5472.00
2019-03-17T07:38:20.594Z,5556.00
2019-03-17T07:39:20.556Z,5236.00
2019-03-17T07:40:20.495Z,5284.00
2019-03-17T07:41:20.662Z,5360.00
2019-03-17T07:42:20.396Z,5200.00
2019-03-17T07:43:20.358Z,5324.00
2019-03-17T07:44:20.317Z,5212.00
2019-03-17T07:45:20.348Z,5468.00
2019-03-17T07:46:20.314Z,5652.00
2019-03-17T07:47:20.154Z,5692.00
2019-03-17T07:48:20.116Z,5956.00
2019-03-17T07:49:20.077Z,5984.00
2019-03-17T07:50:20.012Z,5980.00
2019-03-17T07:51:20.157Z,5848.00
2019-03-17T07:52:19.917Z,5812.00
2019-03-17T07:53:19.867Z,5956.00
2019-03-17T07:54:19.844Z,5880.00
2019-03-17T07:55:19.778Z,5868.00
2019-03-17T07:56:19.876Z,6316.00
2019-03-17T07:57:19.681Z,6232.00
2019-03-17T07:58:19.629Z,5944.00
2019-03-17T07:59:19.604Z,6176.00
2019-03-17T08:00:31.203Z,6348.00
2019-03-17T08:01:19.492Z,6136.00
2019-03-17T08:02:19.440Z,6416.00
2019-03-17T08:03:19.568Z,6176.00
2019-03-17T08:04:19.343Z,6648.00
2019-03-17T08:05:19.293Z,6428.00
2019-03-17T08:06:19.263Z,6392.00
2019-03-17T08:07:19.515Z,6312.00
2019-03-17T08:08:19.375Z,6228.00
2019-03-17T08:09:19.104Z,6156.00
2019-03-17T08:10:19.057Z,6404.00
2019-03-17T08:11:19.025Z,6348.00
2019-03-17T08:12:18.962Z,6672.00
2019-03-17T08:13:18.914Z,6680.00
2019-03-17T08:14:18.875Z,6872.00
2019-03-17T08:15:18.981Z,6588.00
2019-03-17T08:16:18.776Z,6796.00
2019-03-17T08:17:18.721Z,6504.00
2019-03-17T08:18:18.692Z,6500.00
2019-03-17T08:19:18.631Z,6516.00
2019-03-17T08:20:18.779Z,6628.00
2019-03-17T08:21:18.534Z,6784.00
2019-03-17T08:22:18.487Z,7120.00
2019-03-17T08:23:18.461Z,6856.00
2019-03-17T08:24:18.397Z,6260.00
2019-03-17T08:25:18.581Z,6400.00
2019-03-17T08:26:18.298Z,7548.00
2019-03-17T08:27:18.255Z,6852.00
2019-03-17T08:28:18.227Z,6660.00
2019-03-17T08:29:18.155Z,6252.00
2019-03-17T08:30:18.275Z,6492.00
2019-03-17T08:31:18.070Z,6996.00
2019-03-17T08:32:18.016Z,7232.00
2019-03-17T08:33:18.016Z,7204.00
2019-03-17T08:34:17.921Z,7596.00
2019-03-17T08:35:18.092Z,8292.00
2019-03-17T08:36:17.875Z,8216.00
2019-03-17T08:37:17.778Z,8268.00
2019-03-17T08:38:22.152Z,7832.00
2019-03-17T08:39:17.686Z,8416.00
2019-03-17T08:40:17.793Z,8284.00
2019-03-17T08:41:17.596Z,9160.00
2019-03-17T08:42:17.547Z,8892.00
2019-03-17T08:43:17.495Z,9284.00
2019-03-17T08:44:17.453Z,9808.00
2019-03-17T08:45:17.584Z,10100.00
2019-03-17T08:46:17.358Z,9836.00
2019-03-17T08:47:17.312Z,9764.00
2019-03-17T08:48:17.289Z,9188.00
2019-03-17T08:49:17.221Z,8472.00
2019-03-17T08:50:17.397Z,7848.00
2019-03-17T08:51:17.137Z,8168.00
2019-03-17T08:52:17.080Z,8832.00
2019-03-17T08:53:17.051Z,9360.00
2019-03-17T08:54:16.988Z,9848.00
2019-03-17T08:55:17.094Z,9872.00
2019-03-17T08:56:16.900Z,10328.00
2019-03-17T08:57:16.853Z,9784.00
2019-03-17T08:58:16.820Z,9284.00
2019-03-17T08:59:16.769Z,9596.00
2019-03-17T09:00:16.893Z,9424.00
2019-03-17T09:01:16.663Z,8404.00
2019-03-17T09:02:16.622Z,8320.00
2019-03-17T09:03:16.588Z,8556.00
2019-03-17T09:04:16.526Z,8852.00
2019-03-17T09:05:16.693Z,8244.00
2019-03-17T09:06:16.432Z,8624.00
2019-03-17T09:07:16.386Z,8652.00
2019-03-17T09:08:16.360Z,8828.00
2019-03-17T09:09:16.301Z,8700.00
2019-03-17T09:10:16.398Z,8300.00
2019-03-17T09:11:16.211Z,8468.00
2019-03-17T09:12:16.157Z,8248.00
2019-03-17T09:13:16.116Z,8496.00
2019-03-17T09:14:16.064Z,9156.00
2019-03-17T09:15:16.207Z,9380.00
2019-03-17T09:16:15.976Z,8416.00
2019-03-17T09:17:15.935Z,9280.00
2019-03-17T09:18:15.899Z,9088.00
2019-03-17T09:19:15.835Z,9800.00
2019-03-17T09:20:15.997Z,9732.00
2019-03-17T09:21:15.744Z,9476.00
2019-03-17T09:22:15.697Z,9208.00
2019-03-17T09:23:15.668Z,8872.00
2019-03-17T09:24:17.497Z,8856.00
2019-03-17T09:25:15.712Z,8700.00
2019-03-17T09:26:15.514Z,9232.00
2019-03-17T09:27:15.468Z,9196.00
2019-03-17T09:28:15.445Z,9908.00
2019-03-17T09:29:15.376Z,9620.00
2019-03-17T09:30:15.527Z,9708.00
2019-03-17T09:31:15.285Z,9220.00
2019-03-17T09:32:15.241Z,8924.00
2019-03-17T09:33:15.210Z,8916.00
2019-03-17T09:34:15.148Z,8796.00
2019-03-17T09:35:15.325Z,8724.00
2019-03-17T09:36:15.058Z,8800.00
2019-03-17T09:37:15.015Z,8392.00
2019-03-17T09:38:14.982Z,8344.00
2019-03-17T09:39:14.920Z,8048.00
2019-03-17T09:40:15.112Z,8204.00
2019-03-17T09:41:14.828Z,8164.00
2019-03-17T09:42:14.783Z,8320.00
2019-03-17T09:43:14.737Z,7832.00
2019-03-17T09:44:14.690Z,7380.00
2019-03-17T09:45:14.829Z,7004.00
2019-03-17T09:46:14.605Z,6888.00
2019-03-17T09:47:14.558Z,6876.00
2019-03-17T09:48:14.526Z,6776.00
2019-03-17T09:49:14.468Z,6448.00
2019-03-17T09:50:14.623Z,6404.00
2019-03-17T09:51:14.372Z,6168.00
2019-03-17T09:52:14.341Z,6164.00
2019-03-17T09:53:14.279Z,5944.00
2019-03-17T09:54:14.242Z,6008.00
2019-03-17T09:55:14.212Z,5992.00
2019-03-17T09:56:14.144Z,5360.00
2019-03-17T09:57:14.322Z,6172.00
2019-03-17T09:58:14.057Z,6592.00
2019-03-17T09:59:14.007Z,7244.00
2019-03-17T10:00:13.979Z,8672.00
2019-03-17T10:01:13.915Z,9876.00
2019-03-17T10:02:14.029Z,9344.00
2019-03-17T10:03:13.824Z,10052.00
2019-03-17T10:04:13.783Z,10840.00
2019-03-17T10:05:13.753Z,11556.00
2019-03-17T10:06:13.692Z,11628.00
2019-03-17T10:07:13.832Z,11424.00
2019-03-17T10:08:13.595Z,11608.00
2019-03-17T10:09:13.550Z,11952.00
2019-03-17T10:10:13.609Z,11764.00
2019-03-17T10:11:13.467Z,11948.00
2019-03-17T10:12:13.624Z,11564.00
2019-03-17T10:13:13.370Z,12128.00
2019-03-17T10:14:13.332Z,12604.00
2019-03-17T10:15:13.302Z,12200.00
2019-03-17T10:16:13.238Z,11536.00
2019-03-17T10:17:13.331Z,11240.00
2019-03-17T10:18:13.153Z,11696.00
2019-03-17T10:19:13.101Z,12232.00
2019-03-17T10:20:13.075Z,12648.00
2019-03-17T10:21:13.014Z,12960.00
2019-03-17T10:22:13.006Z,12204.00
2019-03-17T10:23:12.925Z,12440.00
2019-03-17T10:24:13.044Z,11616.00
2019-03-17T10:25:12.835Z,10844.00
2019-03-17T10:26:12.790Z,10728.00
2019-03-17T10:27:12.767Z,10884.00
2019-03-17T10:28:12.719Z,10840.00
2019-03-17T10:29:12.829Z,10752.00
2019-03-17T10:30:12.611Z,10084.00
2019-03-17T10:31:12.568Z,10136.00
2019-03-17T10:32:12.543Z,10024.00
2019-03-17T10:33:12.480Z,9636.00
2019-03-17T10:34:12.641Z,9404.00
2019-03-17T10:35:12.391Z,9348.00
2019-03-17T10:36:12.346Z,9304.00
2019-03-17T10:37:12.320Z,9560.00
2019-03-17T10:38:12.264Z,10144.00
2019-03-17T10:39:12.920Z,10400.00
2019-03-17T10:40:12.177Z,10568.00
2019-03-17T10:41:12.147Z,10632.00
2019-03-17T10:42:12.098Z,10668.00
2019-03-17T10:43:12.037Z,10800.00
2019-03-17T10:44:12.153Z,11356.00
2019-03-17T10:45:11.945Z,11268.00
2019-03-17T10:46:11.907Z,10440.00
2019-03-17T10:47:11.879Z,10276.00
2019-03-17T10:48:11.812Z,10036.00
2019-03-17T10:49:11.945Z,10308.00
2019-03-17T10:50:11.726Z,10672.00
2019-03-17T10:51:11.683Z,10668.00
2019-03-17T10:52:11.634Z,11044.00
2019-03-17T10:53:11.591Z,11024.00
2019-03-17T10:54:14.784Z,10740.00
2019-03-17T10:55:11.501Z,10624.00
2019-03-17T10:56:11.456Z,10728.00
2019-03-17T10:57:11.428Z,10656.00
2019-03-17T10:58:11.372Z,10548.00
2019-03-17T10:59:11.550Z,10364.00
2019-03-17T11:00:11.278Z,10220.00
2019-03-17T11:01:11.233Z,9912.00
2019-03-17T11:02:11.208Z,10096.00
2019-03-17T11:03:11.152Z,10296.00
2019-03-17T11:04:11.251Z,10120.00
2019-03-17T11:05:11.061Z,9816.00
2019-03-17T11:06:11.011Z,9692.00
2019-03-17T11:07:10.992Z,10036.00
2019-03-17T11:08:10.929Z,10168.00
2019-03-17T11:09:11.061Z,10800.00
2019-03-17T11:10:10.836Z,11008.00
2019-03-17T11:11:12.151Z,11144.00
2019-03-17T11:12:10.768Z,11172.00
2019-03-17T11:13:10.703Z,11260.00
2019-03-17T11:14:10.872Z,11440.00
2019-03-17T11:15:10.619Z,11024.00
2019-03-17T11:16:10.569Z,10916.00
2019-03-17T11:17:10.546Z,10932.00
2019-03-17T11:18:10.481Z,10920.00
2019-03-17T11:19:10.651Z,10892.00
2019-03-17T11:20:10.397Z,10996.00
2019-03-17T11:21:10.347Z,10824.00
2019-03-17T11:22:10.303Z,10028.00
2019-03-17T11:23:10.263Z,10276.00
2019-03-17T11:24:10.371Z,10216.00
2019-03-17T11:25:10.172Z,10432.00
2019-03-17T11:26:10.125Z,10320.00
2019-03-17T11:27:10.171Z,10092.00
2019-03-17T11:28:10.097Z,9348.00
2019-03-17T11:29:10.158Z,8640.00
2019-03-17T11:30:09.954Z,7748.00
2019-03-17T11:31:09.905Z,7484.00
2019-03-17T11:32:09.889Z,7544.00
2019-03-17T11:33:09.815Z,7280.00
2019-03-17T11:34:09.971Z,6832.00
2019-03-17T11:35:09.727Z,6932.00
2019-03-17T11:36:09.683Z,7688.00
2019-03-17T11:37:09.664Z,8080.00
2019-03-17T11:38:09.594Z,9264.00
2019-03-17T11:39:09.778Z,9720.00
2019-03-17T11:40:09.507Z,9944.00
2019-03-17T11:41:09.466Z,10212.00
2019-03-17T11:42:09.437Z,10484.00
2019-03-17T11:43:09.372Z,10908.00
2019-03-17T11:44:09.477Z,10892.00
2019-03-17T11:45:09.284Z,10692.00
2019-03-17T11:46:09.239Z,10424.00
2019-03-17T11:47:09.212Z,11072.00
2019-03-17T11:48:09.153Z,10464.00
2019-03-17T11:49:09.269Z,9896.00
2019-03-17T11:50:09.066Z,9872.00
2019-03-17T11:51:09.022Z,10152.00
2019-03-17T11:52:08.973Z,10216.00
2019-03-17T11:53:08.930Z,9384.00
2019-03-17T11:54:09.069Z,9588.00
2019-03-17T11:55:08.840Z,9340.00
2019-03-17T11:56:08.797Z,9336.00
2019-03-17T11:57:08.769Z,9744.00
2019-03-17T11:58:08.709Z,9888.00
2019-03-17T11:59:08.885Z,9960.00
2019-03-17T12:00:08.618Z,9168.00
2019-03-17T12:01:08.574Z,8460.00
2019-03-17T12:02:08.547Z,8204.00
2019-03-17T12:03:08.488Z,8068.00
2019-03-17T12:04:08.574Z,8172.00
2019-03-17T12:05:08.397Z,8832.00
2019-03-17T12:06:08.357Z,9700.00
2019-03-17T12:07:08.333Z,9968.00
2019-03-17T12:08:08.264Z,10476.00
2019-03-17T12:09:08.393Z,11652.00
2019-03-17T12:10:08.177Z,11884.00
2019-03-17T12:11:08.127Z,12096.00
2019-03-17T12:12:08.100Z,12164.00
2019-03-17T12:13:08.039Z,11644.00
2019-03-17T12:14:09.874Z,11112.00
2019-03-17T12:15:07.951Z,10876.00
2019-03-17T12:16:07.905Z,11132.00
2019-03-17T12:17:07.880Z,10928.00
2019-03-17T12:18:07.818Z,10332.00
2019-03-17T12:19:07.987Z,9660.00
2019-03-17T12:20:07.735Z,9556.00
2019-03-17T12:21:07.689Z,9760.00
2019-03-17T12:22:09.294Z,9456.00
2019-03-17T12:23:07.595Z,9652.00
2019-03-17T12:24:07.797Z,9704.00
2019-03-17T12:25:07.513Z,11040.00
2019-03-17T12:26:07.461Z,10948.00
2019-03-17T12:27:07.444Z,10064.00
2019-03-17T12:28:07.374Z,9756.00
2019-03-17T12:29:07.499Z,10148.00
2019-03-17T12:30:07.288Z,9032.00
2019-03-17T12:31:07.245Z,9864.00
2019-03-17T12:32:07.219Z,9956.00
2019-03-17T12:33:07.149Z,10408.00
2019-03-17T12:34:07.303Z,10440.00
2019-03-17T12:35:07.059Z,10416.00
2019-03-17T12:36:07.017Z,12016.00
2019-03-17T12:37:06.988Z,11748.00
2019-03-17T12:38:06.926Z,10816.00
2019-03-17T12:39:07.098Z,11016.00
2019-03-17T12:40:06.845Z,11512.00
2019-03-17T12:41:06.800Z,10828.00
2019-03-17T12:42:06.767Z,10316.00
2019-03-17T12:43:06.705Z,9672.00
2019-03-17T12:44:07.026Z,9156.00
2019-03-17T12:45:06.615Z,9236.00
2019-03-17T12:46:06.571Z,9552.00
2019-03-17T12:47:06.549Z,9572.00
2019-03-17T12:48:06.487Z,10180.00
2019-03-17T12:49:06.562Z,9756.00
2019-03-17T12:50:06.398Z,9528.00
2019-03-17T12:51:06.349Z,9540.00
2019-03-17T12:52:06.311Z,9044.00
2019-03-17T12:53:07.843Z,10212.00
2019-03-17T12:54:06.400Z,10124.00
2019-03-17T12:55:06.175Z,9352.00
2019-03-17T12:56:06.129Z,9388.00
2019-03-17T12:57:06.102Z,9380.00
2019-03-17T12:58:06.040Z,9308.00
2019-03-17T12:59:06.203Z,9884.00
2019-03-17T13:00:05.948Z,10328.00
2019-03-17T13:01:05.902Z,9684.00
2019-03-17T13:02:05.881Z,9016.00
2019-03-17T13:03:05.814Z,9076.00
2019-03-17T13:04:06.025Z,10176.00
2019-03-17T13:05:05.725Z,10436.00
2019-03-17T13:06:05.682Z,10524.00
2019-03-17T13:07:05.652Z,11016.00
2019-03-17T13:08:05.592Z,11780.00
2019-03-17T13:09:05.714Z,11872.00
2019-03-17T13:10:14.861Z,11412.00
2019-03-17T13:11:05.468Z,10496.00
2019-03-17T13:12:05.480Z,9844.00
2019-03-17T13:13:05.370Z,9784.00
2019-03-17T13:14:06.850Z,8356.00
2019-03-17T13:15:05.281Z,8628.00
2019-03-17T13:16:05.238Z,9064.00
2019-03-17T13:17:05.211Z,10100.00
2019-03-17T13:18:05.155Z,9984.00
2019-03-17T13:19:05.310Z,9264.00
2019-03-17T13:20:05.114Z,8760.00
2019-03-17T13:21:05.017Z,8864.00
2019-03-17T13:22:04.983Z,9104.00
2019-03-17T13:23:04.939Z,9124.00
2019-03-17T13:24:05.115Z,9528.00
2019-03-17T13:25:04.838Z,9840.00
2019-03-17T13:26:04.798Z,9564.00
2019-03-17T13:27:04.836Z,10160.00